sensor_id;sensor_type;location;lat;lon;timestamp;temperature;humidity
19224;DHT22;9746;47.180;9.776;2023-06-26T09:56:21;32.90;98.20
19224;DHT22;9746;47.180;9.776;2023-06-26T09:58:49;33.20;96.50
19224;DHT22;9746;47.180;9.776;2023-06-26T10:01:27;33.30;96.40
19224;DHT22;9746;47.180;9.776;2023-06-26T10:03:55;33.50;96.20
19224;DHT22;9746;47.180;9.776;2023-06-26T10:06:30;33.70;94.90
19224;DHT22;9746;47.180;9.776;2023-06-26T10:09:00;33.80;93.90
19224;DHT22;9746;47.180;9.776;2023-06-26T10:11:35;34.00;93.70
19224;DHT22;9746;47.180;9.776;2023-06-26T10:14:05;34.30;92.60
19224;DHT22;9746;47.180;9.776;2023-06-26T10:16:35;34.40;93.10
19224;DHT22;9746;47.180;9.776;2023-06-26T10:19:07;34.50;91.90
19224;DHT22;9746;47.180;9.776;2023-06-26T10:21:37;34.50;90.70
19224;DHT22;9746;47.180;9.776;2023-06-26T10:24:06;34.60;91.20
19224;DHT22;9746;47.180;9.776;2023-06-26T10:26:44;34.70;91.10
19224;DHT22;9746;47.180;9.776;2023-06-26T10:29:13;34.90;92.40
19224;DHT22;9746;47.180;9.776;2023-06-26T10:31:44;35.00;90.90
19224;DHT22;9746;47.180;9.776;2023-06-26T10:34:13;35.00;89.30
19224;DHT22;9746;47.180;9.776;2023-06-26T10:36:41;34.90;89.30
19224;DHT22;9746;47.180;9.776;2023-06-26T10:39:09;34.80;87.50
19224;DHT22;9746;47.180;9.776;2023-06-26T10:41:40;34.80;88.20
19224;DHT22;9746;47.180;9.776;2023-06-26T10:44:09;35.00;87.10
19224;DHT22;9746;47.180;9.776;2023-06-26T10:46:51;35.30;87.90
19224;DHT22;9746;47.180;9.776;2023-06-26T10:49:19;35.40;89.40
19224;DHT22;9746;47.180;9.776;2023-06-26T10:51:49;35.50;87.70
19224;DHT22;9746;47.180;9.776;2023-06-26T10:54:17;35.70;86.10
19224;DHT22;9746;47.180;9.776;2023-06-26T10:56:48;35.70;84.50
19224;DHT22;9746;47.180;9.776;2023-06-26T10:59:17;35.80;86.80
19224;DHT22;9746;47.180;9.776;2023-06-26T11:01:56;36.00;88.00
19224;DHT22;9746;47.180;9.776;2023-06-26T11:04:39;36.30;89.80
19224;DHT22;9746;47.180;9.776;2023-06-26T11:07:19;36.50;86.30
19224;DHT22;9746;47.180;9.776;2023-06-26T11:09:55;36.60;80.10
19224;DHT22;9746;47.180;9.776;2023-06-26T11:12:38;36.60;81.00
19224;DHT22;9746;47.180;9.776;2023-06-26T11:15:09;36.50;79.10
19224;DHT22;9746;47.180;9.776;2023-06-26T11:17:38;36.50;82.30
19224;DHT22;9746;47.180;9.776;2023-06-26T11:20:07;36.40;79.50
19224;DHT22;9746;47.180;9.776;2023-06-26T11:22:37;36.10;78.30
19224;DHT22;9746;47.180;9.776;2023-06-26T11:25:05;35.90;82.50
19224;DHT22;9746;47.180;9.776;2023-06-26T11:27:40;35.90;83.50
19224;DHT22;9746;47.180;9.776;2023-06-26T11:30:09;36.00;79.50
19224;DHT22;9746;47.180;9.776;2023-06-26T11:32:39;36.20;80.70
19224;DHT22;9746;47.180;9.776;2023-06-26T11:35:08;36.50;79.80
19224;DHT22;9746;47.180;9.776;2023-06-26T11:37:35;36.90;78.20
19224;DHT22;9746;47.180;9.776;2023-06-26T11:40:16;36.90;76.30
19224;DHT22;9746;47.180;9.776;2023-06-26T11:42:47;37.10;76.50
19224;DHT22;9746;47.180;9.776;2023-06-26T11:45:15;37.10;73.90
19224;DHT22;9746;47.180;9.776;2023-06-26T11:47:44;37.00;75.90
19224;DHT22;9746;47.180;9.776;2023-06-26T11:50:15;37.30;74.40
19224;DHT22;9746;47.180;9.776;2023-06-26T11:52:43;37.60;75.70
19224;DHT22;9746;47.180;9.776;2023-06-26T11:55:11;38.00;74.30
19224;DHT22;9746;47.180;9.776;2023-06-26T11:57:38;38.40;73.00
19224;DHT22;9746;47.180;9.776;2023-06-26T12:00:13;38.90;73.40
19224;DHT22;9746;47.180;9.776;2023-06-26T12:02:44;39.30;74.50
19224;DHT22;9746;47.180;9.776;2023-06-26T12:05:12;40.00;75.30
19224;DHT22;9746;47.180;9.776;2023-06-26T12:07:41;40.60;71.50
19224;DHT22;9746;47.180;9.776;2023-06-26T12:10:10;41.20;68.50
19224;DHT22;9746;47.180;9.776;2023-06-26T12:12:39;41.70;66.50
19224;DHT22;9746;47.180;9.776;2023-06-26T12:15:08;42.30;67.20
19224;DHT22;9746;47.180;9.776;2023-06-26T12:17:39;42.80;66.20
19224;DHT22;9746;47.180;9.776;2023-06-26T12:20:17;43.20;63.20
19224;DHT22;9746;47.180;9.776;2023-06-26T12:22:46;43.40;61.90
19224;DHT22;9746;47.180;9.776;2023-06-26T12:25:14;43.80;61.30
19224;DHT22;9746;47.180;9.776;2023-06-26T12:27:44;44.30;59.10
19224;DHT22;9746;47.180;9.776;2023-06-26T12:30:13;43.90;57.20
19224;DHT22;9746;47.180;9.776;2023-06-26T12:32:44;43.60;57.80
19224;DHT22;9746;47.180;9.776;2023-06-26T12:35:12;43.50;58.00
19224;DHT22;9746;47.180;9.776;2023-06-26T12:37:42;43.80;58.00
19224;DHT22;9746;47.180;9.776;2023-06-26T12:40:16;44.40;57.40
19224;DHT22;9746;47.180;9.776;2023-06-26T12:42:46;45.00;54.90
19224;DHT22;9746;47.180;9.776;2023-06-26T12:45:15;45.40;53.90
19224;DHT22;9746;47.180;9.776;2023-06-26T12:47:47;46.00;54.00
19224;DHT22;9746;47.180;9.776;2023-06-26T12:50:14;46.90;52.20
19224;DHT22;9746;47.180;9.776;2023-06-26T12:52:42;47.10;50.00
19224;DHT22;9746;47.180;9.776;2023-06-26T12:55:10;47.20;49.20
19224;DHT22;9746;47.180;9.776;2023-06-26T12:57:38;47.50;50.50
19224;DHT22;9746;47.180;9.776;2023-06-26T13:00:07;48.00;48.90
19224;DHT22;9746;47.180;9.776;2023-06-26T13:02:36;48.60;49.10
19224;DHT22;9746;47.180;9.776;2023-06-26T13:05:06;49.10;50.20
19224;DHT22;9746;47.180;9.776;2023-06-26T13:07:34;49.40;49.90
19224;DHT22;9746;47.180;9.776;2023-06-26T13:10:02;49.90;51.70
19224;DHT22;9746;47.180;9.776;2023-06-26T13:12:31;50.40;47.40
19224;DHT22;9746;47.180;9.776;2023-06-26T13:14:59;50.80;46.00
19224;DHT22;9746;47.180;9.776;2023-06-26T13:17:26;51.10;46.20
19224;DHT22;9746;47.180;9.776;2023-06-26T13:19:53;51.20;44.50
19224;DHT22;9746;47.180;9.776;2023-06-26T13:22:22;50.90;43.50
19224;DHT22;9746;47.180;9.776;2023-06-26T13:24:52;51.10;45.00
19224;DHT22;9746;47.180;9.776;2023-06-26T13:27:19;50.80;44.30
19224;DHT22;9746;47.180;9.776;2023-06-26T13:29:46;51.00;42.70
19224;DHT22;9746;47.180;9.776;2023-06-26T13:32:14;50.90;43.50
19224;DHT22;9746;47.180;9.776;2023-06-26T13:34:48;50.80;41.70
19224;DHT22;9746;47.180;9.776;2023-06-26T13:37:16;51.30;42.80
19224;DHT22;9746;47.180;9.776;2023-06-26T13:39:45;51.50;41.80
19224;DHT22;9746;47.180;9.776;2023-06-26T13:42:15;51.50;41.90
19224;DHT22;9746;47.180;9.776;2023-06-26T13:44:43;51.90;41.40
19224;DHT22;9746;47.180;9.776;2023-06-26T13:47:13;51.80;41.80
19224;DHT22;9746;47.180;9.776;2023-06-26T13:49:45;51.80;41.50
19224;DHT22;9746;47.180;9.776;2023-06-26T13:52:12;52.20;42.40
19224;DHT22;9746;47.180;9.776;2023-06-26T13:54:41;52.60;41.70
19224;DHT22;9746;47.180;9.776;2023-06-26T13:57:10;52.90;38.50
19224;DHT22;9746;47.180;9.776;2023-06-26T13:59:39;53.20;39.70
19224;DHT22;9746;47.180;9.776;2023-06-26T14:02:07;53.30;40.70
19224;DHT22;9746;47.180;9.776;2023-06-26T14:04:36;53.40;40.60
19224;DHT22;9746;47.180;9.776;2023-06-26T14:07:05;53.40;39.20
19224;DHT22;9746;47.180;9.776;2023-06-26T14:09:40;53.10;38.00
19224;DHT22;9746;47.180;9.776;2023-06-26T14:12:09;52.50;38.50
19224;DHT22;9746;47.180;9.776;2023-06-26T14:14:37;52.90;40.80
19224;DHT22;9746;47.180;9.776;2023-06-26T14:17:05;53.20;40.00
19224;DHT22;9746;47.180;9.776;2023-06-26T14:19:36;53.60;38.70
19224;DHT22;9746;47.180;9.776;2023-06-26T14:22:04;53.70;37.90
19224;DHT22;9746;47.180;9.776;2023-06-26T14:24:32;53.30;38.60
19224;DHT22;9746;47.180;9.776;2023-06-26T14:27:09;53.40;38.70
19224;DHT22;9746;47.180;9.776;2023-06-26T14:29:41;53.20;38.60
19224;DHT22;9746;47.180;9.776;2023-06-26T14:32:09;53.30;37.50
19224;DHT22;9746;47.180;9.776;2023-06-26T14:34:37;53.30;36.70
19224;DHT22;9746;47.180;9.776;2023-06-26T14:37:06;53.00;38.30
19224;DHT22;9746;47.180;9.776;2023-06-26T14:39:34;52.60;38.10
19224;DHT22;9746;47.180;9.776;2023-06-26T14:42:05;53.00;38.30
19224;DHT22;9746;47.180;9.776;2023-06-26T14:44:32;53.10;38.20
19224;DHT22;9746;47.180;9.776;2023-06-26T14:47:01;53.30;37.70
19224;DHT22;9746;47.180;9.776;2023-06-26T14:49:30;53.00;37.10
19224;DHT22;9746;47.180;9.776;2023-06-26T14:51:58;53.10;40.10
19224;DHT22;9746;47.180;9.776;2023-06-26T14:54:32;53.60;37.10
19224;DHT22;9746;47.180;9.776;2023-06-26T14:57:00;53.50;38.00
19224;DHT22;9746;47.180;9.776;2023-06-26T14:59:27;53.50;37.20
19224;DHT22;9746;47.180;9.776;2023-06-26T15:01:55;53.80;37.20
19224;DHT22;9746;47.180;9.776;2023-06-26T15:04:25;53.70;35.60
19224;DHT22;9746;47.180;9.776;2023-06-26T15:06:53;53.20;36.10
19224;DHT22;9746;47.180;9.776;2023-06-26T15:09:20;52.70;36.70
19224;DHT22;9746;47.180;9.776;2023-06-26T15:11:48;52.80;37.50
19224;DHT22;9746;47.180;9.776;2023-06-26T15:14:17;52.50;36.70
19224;DHT22;9746;47.180;9.776;2023-06-26T15:16:46;52.00;37.70
19224;DHT22;9746;47.180;9.776;2023-06-26T15:19:13;51.30;37.00
19224;DHT22;9746;47.180;9.776;2023-06-26T15:21:43;50.50;37.50
19224;DHT22;9746;47.180;9.776;2023-06-26T15:24:11;50.00;38.20
19224;DHT22;9746;47.180;9.776;2023-06-26T15:26:39;49.40;39.70
19224;DHT22;9746;47.180;9.776;2023-06-26T15:29:07;48.40;38.00
19224;DHT22;9746;47.180;9.776;2023-06-26T15:31:34;46.30;39.70
19224;DHT22;9746;47.180;9.776;2023-06-26T15:34:04;45.50;40.90
19224;DHT22;9746;47.180;9.776;2023-06-26T15:36:32;45.40;43.30
19224;DHT22;9746;47.180;9.776;2023-06-26T15:39:00;45.50;41.90
19224;DHT22;9746;47.180;9.776;2023-06-26T15:41:30;46.10;42.20
19224;DHT22;9746;47.180;9.776;2023-06-26T15:43:58;46.90;42.90
19224;DHT22;9746;47.180;9.776;2023-06-26T15:46:28;47.60;41.50
19224;DHT22;9746;47.180;9.776;2023-06-26T15:48:57;47.60;40.30
19224;DHT22;9746;47.180;9.776;2023-06-26T15:51:27;46.90;41.00
19224;DHT22;9746;47.180;9.776;2023-06-26T15:54:00;46.70;41.50
19224;DHT22;9746;47.180;9.776;2023-06-26T15:56:28;46.50;42.90
19224;DHT22;9746;47.180;9.776;2023-06-26T15:58:55;47.10;41.50
19224;DHT22;9746;47.180;9.776;2023-06-26T16:01:23;47.10;41.60
19224;DHT22;9746;47.180;9.776;2023-06-26T16:03:51;46.80;42.30
19224;DHT22;9746;47.180;9.776;2023-06-26T16:06:19;46.80;43.40
19224;DHT22;9746;47.180;9.776;2023-06-26T16:08:46;46.30;42.20
19224;DHT22;9746;47.180;9.776;2023-06-26T16:11:16;45.60;43.20
19224;DHT22;9746;47.180;9.776;2023-06-26T16:13:43;45.10;42.90
19224;DHT22;9746;47.180;9.776;2023-06-26T16:16:11;44.40;43.70
19224;DHT22;9746;47.180;9.776;2023-06-26T16:18:39;44.40;44.00
19224;DHT22;9746;47.180;9.776;2023-06-26T16:21:08;44.60;44.50
19224;DHT22;9746;47.180;9.776;2023-06-26T16:23:35;44.20;43.20
19224;DHT22;9746;47.180;9.776;2023-06-26T16:26:02;44.50;44.60
19224;DHT22;9746;47.180;9.776;2023-06-26T16:28:31;44.70;44.20
19224;DHT22;9746;47.180;9.776;2023-06-26T16:30:58;43.90;43.80
19224;DHT22;9746;47.180;9.776;2023-06-26T16:33:26;42.70;45.20
19224;DHT22;9746;47.180;9.776;2023-06-26T16:35:53;42.30;45.70
19224;DHT22;9746;47.180;9.776;2023-06-26T16:38:21;41.80;46.80
19224;DHT22;9746;47.180;9.776;2023-06-26T16:40:50;40.90;47.90
19224;DHT22;9746;47.180;9.776;2023-06-26T16:43:17;40.90;48.50
19224;DHT22;9746;47.180;9.776;2023-06-26T16:45:46;40.30;48.60
19224;DHT22;9746;47.180;9.776;2023-06-26T16:48:13;39.50;49.80
19224;DHT22;9746;47.180;9.776;2023-06-26T16:50:42;38.40;51.60
19224;DHT22;9746;47.180;9.776;2023-06-26T16:53:10;37.10;53.70
19224;DHT22;9746;47.180;9.776;2023-06-26T16:55:37;36.00;54.80
19224;DHT22;9746;47.180;9.776;2023-06-26T16:58:04;35.30;56.80
19224;DHT22;9746;47.180;9.776;2023-06-26T17:00:32;34.80;57.30
19224;DHT22;9746;47.180;9.776;2023-06-26T17:03:02;34.60;58.30
19224;DHT22;9746;47.180;9.776;2023-06-26T17:05:30;34.40;58.00
19224;DHT22;9746;47.180;9.776;2023-06-26T17:07:57;34.30;58.30
19224;DHT22;9746;47.180;9.776;2023-06-26T17:10:25;34.20;59.10
19224;DHT22;9746;47.180;9.776;2023-06-26T17:12:52;34.00;59.60
19224;DHT22;9746;47.180;9.776;2023-06-26T17:15:19;34.00;60.30
19224;DHT22;9746;47.180;9.776;2023-06-26T17:17:48;33.70;60.90
19224;DHT22;9746;47.180;9.776;2023-06-26T17:20:23;33.30;61.20
19224;DHT22;9746;47.180;9.776;2023-06-26T17:22:51;33.20;62.30
19224;DHT22;9746;47.180;9.776;2023-06-26T17:25:24;33.00;62.70
19224;DHT22;9746;47.180;9.776;2023-06-26T17:27:52;32.70;63.90
19224;DHT22;9746;47.180;9.776;2023-06-26T17:30:19;32.50;64.90
19224;DHT22;9746;47.180;9.776;2023-06-26T17:32:47;32.40;66.10
19224;DHT22;9746;47.180;9.776;2023-06-26T17:35:14;32.30;66.10
19224;DHT22;9746;47.180;9.776;2023-06-26T17:37:43;32.10;66.90
19224;DHT22;9746;47.180;9.776;2023-06-26T17:40:11;32.00;67.60
19224;DHT22;9746;47.180;9.776;2023-06-26T17:42:39;31.80;68.30
19224;DHT22;9746;47.180;9.776;2023-06-26T17:45:20;31.70;69.10
19224;DHT22;9746;47.180;9.776;2023-06-26T17:47:47;31.40;70.10
19224;DHT22;9746;47.180;9.776;2023-06-26T17:50:21;31.00;71.20
19224;DHT22;9746;47.180;9.776;2023-06-26T17:52:50;30.70;72.50
19224;DHT22;9746;47.180;9.776;2023-06-26T17:55:17;30.40;72.90
19224;DHT22;9746;47.180;9.776;2023-06-26T17:57:45;30.30;73.60
19224;DHT22;9746;47.180;9.776;2023-06-26T18:00:15;30.10;73.90
19224;DHT22;9746;47.180;9.776;2023-06-26T18:02:42;30.00;74.30
19224;DHT22;9746;47.180;9.776;2023-06-26T18:05:12;29.90;75.20
19224;DHT22;9746;47.180;9.776;2023-06-26T18:07:41;29.70;75.90
19224;DHT22;9746;47.180;9.776;2023-06-26T18:10:12;29.60;76.40
19224;DHT22;9746;47.180;9.776;2023-06-26T18:12:39;29.30;77.60
19224;DHT22;9746;47.180;9.776;2023-06-26T18:15:10;29.20;78.50
19224;DHT22;9746;47.180;9.776;2023-06-26T18:17:37;29.10;79.50
19224;DHT22;9746;47.180;9.776;2023-06-26T18:20:07;29.00;80.00
19224;DHT22;9746;47.180;9.776;2023-06-26T18:22:35;28.90;80.70
19224;DHT22;9746;47.180;9.776;2023-06-26T18:25:03;28.80;81.90
19224;DHT22;9746;47.180;9.776;2023-06-26T18:27:33;28.60;82.10
19224;DHT22;9746;47.180;9.776;2023-06-26T18:30:01;28.60;82.50
19224;DHT22;9746;47.180;9.776;2023-06-26T18:32:29;28.50;82.80
19224;DHT22;9746;47.180;9.776;2023-06-26T18:35:02;28.40;83.10
19224;DHT22;9746;47.180;9.776;2023-06-26T18:37:30;28.30;83.40
19224;DHT22;9746;47.180;9.776;2023-06-26T18:40:00;28.20;84.10
19224;DHT22;9746;47.180;9.776;2023-06-26T18:42:27;28.10;84.30
19224;DHT22;9746;47.180;9.776;2023-06-26T18:44:56;28.10;84.50
19224;DHT22;9746;47.180;9.776;2023-06-26T18:47:24;28.00;84.80
19224;DHT22;9746;47.180;9.776;2023-06-26T18:49:51;27.90;85.00
19224;DHT22;9746;47.180;9.776;2023-06-26T18:52:19;27.90;84.90
19224;DHT22;9746;47.180;9.776;2023-06-26T18:54:49;27.90;85.10
19224;DHT22;9746;47.180;9.776;2023-06-26T18:57:16;27.90;85.30
19224;DHT22;9746;47.180;9.776;2023-06-26T18:59:43;27.70;85.60
19224;DHT22;9746;47.180;9.776;2023-06-26T19:02:12;27.60;85.80
19224;DHT22;9746;47.180;9.776;2023-06-26T19:04:39;27.50;86.30
19224;DHT22;9746;47.180;9.776;2023-06-26T19:07:09;27.40;86.30
19224;DHT22;9746;47.180;9.776;2023-06-26T19:09:36;27.30;86.40
19224;DHT22;9746;47.180;9.776;2023-06-26T19:12:05;27.20;86.50
19224;DHT22;9746;47.180;9.776;2023-06-26T19:14:33;27.20;86.30
19224;DHT22;9746;47.180;9.776;2023-06-26T19:17:00;27.10;86.80
19224;DHT22;9746;47.180;9.776;2023-06-26T19:19:30;27.20;86.70
19224;DHT22;9746;47.180;9.776;2023-06-26T19:22:04;27.10;85.10
19224;DHT22;9746;47.180;9.776;2023-06-26T19:24:32;27.00;84.20
19224;DHT22;9746;47.180;9.776;2023-06-26T19:27:00;27.00;83.20
19224;DHT22;9746;47.180;9.776;2023-06-26T19:29:27;26.90;81.40
19224;DHT22;9746;47.180;9.776;2023-06-26T19:31:55;26.80;79.80
19224;DHT22;9746;47.180;9.776;2023-06-26T19:34:24;26.70;77.30
19224;DHT22;9746;47.180;9.776;2023-06-26T19:36:53;26.70;77.40
19224;DHT22;9746;47.180;9.776;2023-06-26T19:39:20;26.60;77.40
19224;DHT22;9746;47.180;9.776;2023-06-26T19:41:47;26.60;74.30
19224;DHT22;9746;47.180;9.776;2023-06-26T19:44:15;26.60;74.80
19224;DHT22;9746;47.180;9.776;2023-06-26T19:46:43;26.50;76.40
19224;DHT22;9746;47.180;9.776;2023-06-26T19:49:10;26.40;75.60
19224;DHT22;9746;47.180;9.776;2023-06-26T19:51:38;26.40;74.80
19224;DHT22;9746;47.180;9.776;2023-06-26T19:54:07;26.40;74.60
19224;DHT22;9746;47.180;9.776;2023-06-26T19:56:36;26.40;75.20
19224;DHT22;9746;47.180;9.776;2023-06-26T19:59:03;26.40;74.80
19224;DHT22;9746;47.180;9.776;2023-06-26T20:01:30;26.40;74.80
19224;DHT22;9746;47.180;9.776;2023-06-26T20:03:58;26.40;75.70
19224;DHT22;9746;47.180;9.776;2023-06-26T20:06:34;26.40;76.40
19224;DHT22;9746;47.180;9.776;2023-06-26T20:09:02;26.40;76.60
19224;DHT22;9746;47.180;9.776;2023-06-26T20:11:33;26.40;77.30
19224;DHT22;9746;47.180;9.776;2023-06-26T20:14:01;26.40;77.50
19224;DHT22;9746;47.180;9.776;2023-06-26T20:16:29;26.40;77.80
19224;DHT22;9746;47.180;9.776;2023-06-26T20:18:57;26.40;78.90
19224;DHT22;9746;47.180;9.776;2023-06-26T20:21:24;26.40;79.30
19224;DHT22;9746;47.180;9.776;2023-06-26T20:23:52;26.30;79.70
19224;DHT22;9746;47.180;9.776;2023-06-26T20:26:19;26.30;80.60
